Time;durP1;ratioP1;P1;durP2;ratioP2;P2;SDS_P1;SDS_P2;PMS_P1;PMS_P2;Temp;Humidity;BMP_temperature;BMP_pressure;BME280_temperature;BME280_humidity;BME280_pressure;Samples;Min_cycle;Max_cycle;Signal;HPM_P1;HPM_P2
2023/12/22 00:00:36;;;;;;;7.57;1.43;;;9.80;99.20;;;9.76;64.99;97432.00;4829042;29;113522;-84
2023/12/22 00:03:02;;;;;;;4.13;1.47;;;9.60;99.30;;;9.72;65.09;97432.66;4836475;29;123537;-81
2023/12/22 00:05:29;;;;;;;6.00;1.33;;;9.60;99.30;;;9.69;64.67;97403.00;4843386;29;123221;-81
2023/12/22 00:07:55;;;;;;;1.00;0.80;;;9.60;99.30;;;9.68;65.31;97447.47;4851120;29;115532;-81
2023/12/22 00:10:26;;;;;;;3.00;1.10;;;9.90;99.50;;;9.72;64.97;97427.16;4850863;29;112799;-81
2023/12/22 00:12:58;;;;;;;2.60;1.20;;;9.60;99.40;;;9.77;65.34;97428.06;4843965;29;122819;-83
2023/12/22 00:15:25;;;;;;;7.40;1.33;;;9.60;99.60;;;9.78;65.17;97427.75;4829538;29;123021;-80
2023/12/22 00:18:02;;;;;;;8.00;1.73;;;9.60;99.60;;;9.81;65.73;97418.78;4846674;29;114225;-81
2023/12/22 00:20:30;;;;;;;2.30;1.30;;;9.60;99.90;;;9.81;66.04;97412.47;4825548;29;112877;-81
2023/12/22 00:22:57;;;;;;;11.17;1.60;;;9.60;99.90;;;9.81;66.79;97413.25;4844874;29;123394;-82
2023/12/22 00:25:24;;;;;;;5.30;1.50;;;9.90;99.90;;;9.82;66.90;97401.06;4841593;29;123370;-82
2023/12/22 00:27:56;;;;;;;3.60;1.60;;;9.60;99.90;;;9.84;66.99;97390.50;4839376;29;113708;-82
2023/12/22 00:30:24;;;;;;;4.87;1.73;;;8.40;99.90;;;9.87;66.99;97397.28;4846073;29;113169;-82
2023/12/22 00:33:00;;;;;;;5.27;1.60;;;10.50;99.90;;;9.90;67.11;97421.44;4839774;29;123484;-82
2023/12/22 00:35:27;;;;;;;4.20;1.43;;;10.40;99.90;;;9.93;66.98;97429.03;4858326;29;123115;-81
2023/12/22 00:37:55;;;;;;;6.70;1.50;;;9.70;99.90;;;9.97;67.22;97449.28;4843435;29;113424;-84
2023/12/22 00:40:24;;;;;;;3.60;1.73;;;9.70;99.90;;;10.02;66.73;97489.63;4846253;29;112993;-82
2023/12/22 00:42:52;;;;;;;4.03;1.47;;;9.70;99.90;;;10.07;66.67;97503.22;4834048;29;123691;-83
2023/12/22 00:45:34;;;;;;;4.77;1.63;;;9.80;99.90;;;10.06;67.18;97487.81;4847638;29;121863;-83
2023/12/22 00:48:15;;;;;;;6.07;1.40;;;9.70;99.90;;;9.97;67.66;97493.44;4839832;29;114413;-82
2023/12/22 00:50:54;;;;;;;5.57;1.47;;;12.10;99.90;;;9.86;67.90;97497.72;4824025;29;113397;-82
2023/12/22 00:53:31;;;;;;;6.20;1.70;;;9.60;99.90;;;9.74;68.00;97499.31;4829185;29;123268;-81
2023/12/22 00:56:00;;;;;;;3.00;1.17;;;9.50;99.90;;;9.62;68.24;97492.97;4817472;29;122336;-82
2023/12/22 00:58:32;;;;;;;5.00;1.50;;;9.40;99.90;;;9.57;67.86;97496.72;4799429;29;113708;-83
2023/12/22 01:01:00;;;;;;;2.30;1.27;;;9.40;99.90;;;9.50;68.15;97491.75;4834222;29;114678;-82
2023/12/22 01:03:32;;;;;;;5.10;1.47;;;9.40;99.90;;;9.52;68.04;97483.13;4807336;29;121620;-79
2023/12/22 01:06:10;;;;;;;3.50;1.30;;;10.80;99.90;;;9.53;68.27;97484.75;4826465;29;121775;-80
2023/12/22 01:08:44;;;;;;;3.00;0.90;;;9.40;99.90;;;9.54;67.93;97464.31;4829335;29;113726;-82
2023/12/22 01:11:18;;;;;;;4.67;1.57;;;9.80;99.90;;;9.59;67.89;97466.88;4828408;29;114289;-82
2023/12/22 01:13:46;;;;;;;4.07;1.73;;;9.40;99.90;;;9.65;67.95;97462.75;4825673;29;123429;-82
2023/12/22 01:16:15;;;;;;;3.63;1.37;;;9.50;99.90;;;9.72;68.02;97471.28;4811466;29;123027;-81
2023/12/22 01:18:46;;;;;;;6.83;1.53;;;9.50;99.90;;;9.77;67.35;97456.44;4809585;29;112967;-80
2023/12/22 01:21:19;;;;;;;5.13;1.70;;;9.90;99.90;;;9.81;67.42;97453.84;4814053;29;112190;-84
2023/12/22 01:23:52;;;;;;;3.60;1.60;;;9.70;99.90;;;9.78;66.90;97452.56;4829443;29;123733;-81
2023/12/22 01:26:20;;;;;;;3.70;1.50;;;9.50;99.90;;;9.77;66.99;97455.66;4831972;29;123632;-81
2023/12/22 01:28:48;;;;;;;4.63;1.80;;;10.60;99.90;;;9.76;66.33;97443.81;4827588;29;113011;-81
2023/12/22 01:31:16;;;;;;;1.33;1.17;;;9.50;99.90;;;9.77;66.05;97441.84;4817467;29;114223;-82
2023/12/22 01:33:46;;;;;;;4.30;1.30;;;9.50;99.90;;;9.76;65.83;97435.53;4828503;29;124223;-80
2023/12/22 01:36:13;;;;;;;5.20;1.50;;;9.50;99.90;;;9.75;65.16;97436.66;4819947;29;123932;-80
2023/12/22 01:38:39;;;;;;;7.43;1.53;;;9.50;99.80;;;9.71;64.63;97447.59;4823045;29;113009;-82
2023/12/22 01:41:12;;;;;;;2.03;1.30;;;9.50;99.60;;;9.70;64.44;97459.78;4816475;29;114150;-80
2023/12/22 01:43:38;;;;;;;3.10;1.10;;;9.50;99.40;;;9.67;63.77;97468.72;4810047;29;123941;-80
2023/12/22 01:46:11;;;;;;;10.20;1.93;;;9.40;99.10;;;9.64;63.16;97468.59;4829361;29;124166;-81
2023/12/22 01:48:42;;;;;;;3.43;1.57;;;9.40;98.60;;;9.64;62.89;97485.13;4810577;29;114677;-81
2023/12/22 01:51:14;;;;;;;3.20;1.50;;;9.40;98.50;;;9.61;62.16;97503.16;4844848;29;113619;-82
2023/12/22 01:53:47;;;;;;;8.57;1.90;;;9.40;98.20;;;9.59;61.99;97472.38;4832710;29;123956;-80
2023/12/22 01:56:17;;;;;;;5.47;1.40;;;9.40;97.90;;;9.59;61.44;97480.66;4844257;29;123305;-80
2023/12/22 01:58:56;;;;;;;5.30;1.30;;;9.40;97.80;;;9.56;61.21;97481.31;4854670;29;113452;-79
2023/12/22 02:01:26;;;;;;;3.87;1.40;;;9.40;97.50;;;9.55;61.11;97487.97;4844571;29;113301;-79
2023/12/22 02:03:54;;;;;;;2.40;1.20;;;9.50;97.50;;;9.56;60.48;97521.88;4855333;29;123052;-79
2023/12/22 02:06:21;;;;;;;3.00;1.40;;;9.30;97.30;;;9.55;60.57;97504.53;4857752;29;123802;-81
2023/12/22 02:08:48;;;;;;;3.77;1.33;;;9.30;97.10;;;9.54;60.80;97488.31;4840509;29;114244;-81
2023/12/22 02:11:15;;;;;;;7.27;1.40;;;9.40;97.20;;;9.49;60.62;97501.16;4857879;29;113357;-81
2023/12/22 02:13:46;;;;;;;2.50;1.13;;;9.30;97.10;;;9.50;60.72;97496.44;4843167;29;123450;-82
2023/12/22 02:16:29;;;;;;;2.30;1.00;;;9.30;97.10;;;9.51;60.21;97506.34;4844150;29;124162;-80
2023/12/22 02:19:28;;;;;;;6.20;1.83;;;9.30;96.80;;;9.50;60.15;97485.41;4843133;29;113435;-80
2023/12/22 02:22:05;;;;;;;3.50;1.27;;;9.30;96.90;;;9.47;60.26;97502.66;4861489;29;114286;-81
2023/12/22 02:24:38;;;;;;;6.83;1.73;;;9.40;96.90;;;9.48;59.89;97510.59;4853300;29;123208;-82
2023/12/22 02:27:25;;;;;;;3.53;1.20;;;9.30;96.80;;;9.48;60.04;97510.59;4836603;29;123083;-81
2023/12/22 02:30:13;;;;;;;6.40;1.40;;;9.30;96.80;;;9.47;59.37;97502.66;4837026;29;113290;-82
2023/12/22 02:32:49;;;;;;;2.37;1.10;;;9.30;96.50;;;9.47;59.65;97491.63;4842547;29;114041;-80
2023/12/22 02:35:20;;;;;;;3.90;1.20;;;9.20;96.60;;;9.47;59.79;97519.19;4837084;29;123110;-80
2023/12/22 02:38:21;;;;;;;4.80;1.10;;;9.30;96.70;;;9.46;59.14;97512.06;4854917;29;123912;-82
2023/12/22 02:40:49;;;;;;;1.83;1.10;;;9.20;96.40;;;9.46;59.32;97523.09;4836094;29;115257;-83
2023/12/22 02:43:15;;;;;;;4.93;1.53;;;9.20;96.30;;;9.45;59.00;97496.66;4857066;29;114155;-81
2023/12/22 02:45:51;;;;;;;4.60;1.80;;;9.20;96.20;;;9.44;59.27;97501.38;4849250;29;123654;-81
2023/12/22 02:48:18;;;;;;;3.10;1.50;;;9.20;96.30;;;9.45;59.08;97505.72;4838485;29;123913;-83
2023/12/22 02:50:47;;;;;;;3.70;1.37;;;9.70;96.40;;;9.46;59.06;97484.50;4862393;29;113456;-83
2023/12/22 02:53:14;;;;;;;3.93;1.80;;;9.70;96.30;;;9.46;58.67;97479.00;4867420;29;114022;-81
2023/12/22 02:55:48;;;;;;;4.27;1.50;;;9.20;96.10;;;9.51;58.62;97487.06;4865931;29;122233;-81
2023/12/22 02:58:15;;;;;;;1.70;1.17;;;9.30;96.20;;;9.51;58.90;97500.84;4866267;29;123870;-81
2023/12/22 03:00:48;;;;;;;3.33;1.30;;;9.30;96.10;;;9.50;58.42;97485.41;4866856;28;114000;-82
2023/12/22 03:03:20;;;;;;;4.40;1.43;;;9.30;95.90;;;9.50;58.63;97490.94;4846833;29;113040;-82
2023/12/22 03:05:50;;;;;;;4.77;1.50;;;9.30;95.80;;;9.51;58.44;97476.03;4848353;29;124290;-82
2023/12/22 03:08:29;;;;;;;4.83;1.40;;;9.30;95.80;;;9.54;58.41;97486.38;4857675;29;123743;-84
2023/12/22 03:10:59;;;;;;;4.53;1.40;;;9.30;95.80;;;9.55;58.35;97470.63;4851131;29;113206;-84
2023/12/22 03:13:26;;;;;;;4.93;1.50;;;9.40;95.80;;;9.56;57.91;97477.75;4836153;29;111875;-81
2023/12/22 03:15:52;;;;;;;3.70;1.40;;;9.30;95.70;;;9.56;57.52;97481.31;4867049;29;123319;-82
2023/12/22 03:18:27;;;;;;;2.40;1.10;;;9.30;95.40;;;9.58;57.92;97473.50;4853118;29;122813;-80
2023/12/22 03:20:55;;;;;;;5.03;1.30;;;9.40;95.50;;;9.60;57.51;97490.53;4866431;29;114241;-81
2023/12/22 03:23:27;;;;;;;4.63;1.33;;;9.90;95.50;;;9.65;56.18;97486.75;4866831;29;113588;-81
2023/12/22 03:26:04;;;;;;;4.23;1.67;;;9.40;94.80;;;9.68;56.60;97475.84;4856669;29;123025;-80
2023/12/22 03:28:38;;;;;;;4.80;1.50;;;9.40;94.90;;;9.70;56.67;97500.34;4862738;29;123244;-82
2023/12/22 03:31:06;;;;;;;4.20;1.70;;;9.50;94.90;;;9.71;56.61;97502.75;4863013;29;114557;-81
2023/12/22 03:33:40;;;;;;;2.67;1.30;;;9.50;94.80;;;9.75;55.95;97491.84;4864781;29;114448;-84
2023/12/22 03:36:07;;;;;;;2.63;1.20;;;9.50;94.70;;;9.73;56.06;97496.91;4854284;29;124156;-80
2023/12/22 03:38:41;;;;;;;3.70;1.43;;;9.50;94.50;;;9.76;55.77;97523.00;4865051;29;121578;-81
2023/12/22 03:41:13;;;;;;;5.83;1.40;;;9.50;94.30;;;9.77;55.87;97510.81;4864351;29;113674;-81
2023/12/22 03:43:46;;;;;;;4.83;1.53;;;9.50;94.30;;;9.74;55.72;97515.06;4849617;29;113752;-81
2023/12/22 03:46:14;;;;;;;5.50;1.60;;;9.50;94.30;;;9.76;55.86;97498.19;4855217;29;121847;-83
2023/12/22 03:48:40;;;;;;;9.33;2.10;;;9.70;94.40;;;9.77;55.68;97516.34;4861559;29;124117;-81
2023/12/22 03:51:10;;;;;;;4.93;1.00;;;9.60;94.40;;;9.78;55.85;97527.03;4839487;29;112464;-82
2023/12/22 03:53:38;;;;;;;3.90;1.40;;;9.50;94.30;;;9.77;55.52;97521.84;4842206;29;112642;-82
2023/12/22 03:56:08;;;;;;;4.03;1.50;;;9.50;94.30;;;9.77;55.75;97538.41;4832612;29;124156;-79
2023/12/22 03:58:36;;;;;;;5.57;1.67;;;9.50;94.40;;;9.72;57.33;97551.25;4831250;29;121481;-79
2023/12/22 04:01:07;;;;;;;8.87;1.83;;;9.50;95.20;;;9.68;58.30;97525.50;4843277;29;114437;-79
2023/12/22 04:03:38;;;;;;;4.90;1.40;;;9.50;95.80;;;9.63;59.41;97517.44;4845840;29;114141;-80
2023/12/22 04:06:13;;;;;;;3.63;1.40;;;9.40;96.30;;;9.56;60.64;97519.91;4845103;29;124394;-79
2023/12/22 04:08:40;;;;;;;3.13;1.33;;;9.40;96.80;;;9.51;61.27;97555.97;4836714;29;123416;-79
2023/12/22 04:11:08;;;;;;;4.23;1.40;;;9.30;97.10;;;9.43;61.39;97534.78;4844207;29;115241;-79
2023/12/22 04:13:35;;;;;;;4.50;1.60;;;9.30;97.40;;;9.36;61.91;97543.59;4836715;29;113087;-80
2023/12/22 04:16:05;;;;;;;5.10;1.70;;;9.30;97.60;;;9.32;62.81;97537.13;4846671;29;122309;-80
2023/12/22 04:18:32;;;;;;;4.00;2.00;;;9.20;97.90;;;9.23;63.24;97553.72;4845964;29;124047;-81
2023/12/22 04:20:59;;;;;;;10.83;2.93;;;9.10;98.20;;;9.20;63.51;97537.88;4846188;29;115012;-79
2023/12/22 04:23:26;;;;;;;5.17;1.60;;;9.00;98.40;;;9.11;64.22;97539.88;4840199;29;114943;-82
2023/12/22 04:25:52;;;;;;;5.13;1.40;;;9.00;98.60;;;9.05;64.16;97553.03;4838106;29;124004;-80
2023/12/22 04:28:23;;;;;;;7.00;3.40;;;8.90;98.70;;;9.03;64.15;97541.53;4847594;29;121585;-81
2023/12/22 04:30:52;;;;;;;10.30;1.90;;;9.10;98.90;;;9.00;64.49;97527.59;4837000;29;113839;-82
2023/12/22 04:33:23;;;;;;;9.43;1.93;;;8.80;98.80;;;9.00;63.80;97524.84;4844639;29;113450;-79
2023/12/22 04:36:10;;;;;;;8.17;2.30;;;8.80;98.70;;;8.99;64.10;97545.28;4861517;29;123658;-79
2023/12/22 04:38:41;;;;;;;4.70;1.40;;;8.80;98.70;;;8.99;63.01;97554.34;4845889;29;123132;-81
2023/12/22 04:41:09;;;;;;;7.13;1.40;;;8.80;98.20;;;9.00;61.68;97550.47;4847231;29;113586;-80
2023/12/22 04:43:35;;;;;;;5.20;1.60;;;9.00;97.80;;;8.99;61.92;97554.34;4847405;29;114386;-80
2023/12/22 04:46:07;;;;;;;5.40;1.70;;;8.80;97.70;;;9.04;61.64;97556.13;4859669;29;123256;-79
2023/12/22 04:48:34;;;;;;;5.60;1.87;;;8.80;97.50;;;9.05;61.26;97553.03;4849533;29;124164;-80
2023/12/22 04:51:02;;;;;;;8.20;2.00;;;9.10;97.30;;;9.10;60.63;97560.28;4834382;29;113483;-80
2023/12/22 04:53:29;;;;;;;6.03;1.33;;;8.90;97.00;;;9.11;60.32;97550.91;4863184;29;112534;-82
2023/12/22 04:56:00;;;;;;;4.60;2.30;;;8.90;96.80;;;9.16;60.30;97542.44;4846201;29;123087;-80
2023/12/22 04:58:29;;;;;;;7.17;1.70;;;8.90;96.90;;;9.21;59.65;97602.03;4850458;29;124473;-81
2023/12/22 05:00:59;;;;;;;5.07;1.37;;;9.00;96.60;;;9.22;58.81;97559.59;4843295;29;113985;-81
2023/12/22 05:03:32;;;;;;;6.20;1.60;;;9.00;96.10;;;9.27;59.16;97543.66;4844668;29;113196;-81
2023/12/22 05:06:02;;;;;;;6.47;1.47;;;9.00;96.10;;;9.31;59.05;97570.53;4842193;29;124514;-83
2023/12/22 05:08:29;;;;;;;8.30;1.30;;;9.00;96.10;;;9.33;59.03;97568.28;4844189;29;123314;-81
2023/12/22 05:11:03;;;;;;;9.10;2.40;;;8.90;96.10;;;9.37;59.05;97583.78;4842386;29;115455;-82
2023/12/22 05:13:42;;;;;;;6.40;1.30;;;9.10;96.10;;;9.40;58.74;97593.34;4843841;29;114130;-80
2023/12/22 05:16:11;;;;;;;5.40;1.73;;;9.60;96.10;;;9.42;58.84;97557.97;4843645;29;124327;-80
2023/12/22 05:18:39;;;;;;;8.43;1.60;;;9.20;96.00;;;9.43;58.72;97573.38;4825514;29;123152;-80
2023/12/22 05:21:07;;;;;;;4.40;1.57;;;9.80;96.20;;;9.44;58.60;97586.81;4841222;29;113253;-83
2023/12/22 05:23:42;;;;;;;3.90;1.40;;;9.20;96.00;;;9.50;59.11;97579.16;4843008;29;113655;-82
2023/12/22 05:26:09;;;;;;;6.73;1.80;;;9.30;96.10;;;9.50;59.23;97606.72;4843499;29;123445;-81
2023/12/22 05:28:35;;;;;;;6.40;2.13;;;9.30;96.00;;;9.48;58.69;97600.75;4841498;29;124008;-80
2023/12/22 05:31:10;;;;;;;12.27;2.23;;;9.20;95.80;;;9.46;58.14;97601.09;4842635;29;113440;-82
2023/12/22 05:33:44;;;;;;;8.70;2.57;;;9.30;95.70;;;9.47;58.08;97596.38;4843619;29;114220;-82
2023/12/22 05:36:14;;;;;;;4.10;1.70;;;9.30;95.70;;;9.50;58.41;97587.44;4857118;29;124109;-80
2023/12/22 05:38:45;;;;;;;10.83;2.23;;;9.30;95.90;;;9.49;58.95;97627.19;4842349;29;122332;-80
2023/12/22 05:41:13;;;;;;;13.47;2.73;;;11.10;96.50;;;9.42;59.97;97608.41;4842454;29;114302;-82
2023/12/22 05:43:45;;;;;;;7.70;2.70;;;9.20;96.50;;;9.40;60.43;97585.06;4840971;29;114891;-80
2023/12/22 05:46:13;;;;;;;8.17;2.40;;;10.70;97.00;;;9.38;60.49;97617.69;4841650;29;123306;-82
2023/12/22 05:48:43;;;;;;;12.93;2.63;;;9.20;96.90;;;9.37;60.90;97611.34;4840777;29;122851;-82
2023/12/22 05:51:13;;;;;;;7.63;2.37;;;9.30;96.90;;;9.38;60.46;97612.19;4829223;29;113485;-81
2023/12/22 05:53:46;;;;;;;6.90;2.10;;;9.20;96.70;;;9.39;60.25;97622.06;4842174;29;114315;-80
2023/12/22 05:56:24;;;;;;;10.73;2.60;;;9.30;96.70;;;9.43;59.82;97609.19;4830411;29;124500;-80
2023/12/22 05:58:54;;;;;;;12.33;2.30;;;9.20;96.50;;;9.43;59.42;97629.34;4833570;29;122740;-82
2023/12/22 06:01:29;;;;;;;6.93;2.27;;;9.20;96.30;;;9.47;58.86;97607.41;4841113;29;114789;-80
2023/12/22 06:03:58;;;;;;;9.20;2.10;;;9.20;96.00;;;9.50;58.35;97623.28;4844239;29;113889;-82
2023/12/22 06:06:27;;;;;;;6.57;2.00;;;9.20;95.80;;;9.54;58.05;97613.22;4841190;29;123473;-81
2023/12/22 06:08:54;;;;;;;7.47;2.30;;;9.30;95.60;;;9.57;56.80;97659.41;4841181;29;124206;-81
2023/12/22 06:11:24;;;;;;;13.27;2.87;;;9.30;95.10;;;9.59;56.84;97640.59;4847989;29;113826;-83
2023/12/22 06:14:13;;;;;;;7.63;2.00;;;9.30;95.10;;;9.63;57.22;97655.31;4840734;29;113783;-82
2023/12/22 06:16:45;;;;;;;11.53;2.47;;;9.40;95.10;;;9.66;56.99;97646.34;4841411;29;122044;-83
2023/12/22 06:19:12;;;;;;;8.23;1.80;;;11.50;95.50;;;9.69;56.76;97645.69;4850968;29;123166;-82
2023/12/22 06:21:41;;;;;;;11.10;2.77;;;9.40;95.10;;;9.73;57.35;97649.41;4831090;29;114200;-82
2023/12/22 06:24:16;;;;;;;6.70;1.80;;;9.50;95.10;;;9.78;56.67;97653.94;4841305;29;113380;-81
2023/12/22 06:26:43;;;;;;;8.60;2.10;;;9.50;95.00;;;9.80;56.83;97659.88;4841202;29;123217;-82
2023/12/22 06:29:22;;;;;;;8.77;2.13;;;9.50;94.90;;;9.81;56.55;97655.22;4840481;29;123143;-80
2023/12/22 06:31:51;;;;;;;7.60;2.13;;;9.50;94.90;;;9.80;56.90;97681.97;4832331;29;114328;-80
2023/12/22 06:34:23;;;;;;;7.13;2.00;;;9.60;94.90;;;9.83;56.61;97684.06;4842102;29;114054;-82
2023/12/22 06:36:52;;;;;;;5.93;2.03;;;9.60;94.90;;;9.80;56.97;97679.19;4831765;29;124277;-81
2023/12/22 06:39:22;;;;;;;12.33;2.03;;;9.60;94.90;;;9.82;56.57;97687.97;4837733;29;122732;-82
2023/12/22 06:41:48;;;;;;;9.60;2.53;;;9.60;94.90;;;9.84;56.68;97709.72;4849996;29;112869;-80
2023/12/22 06:44:17;;;;;;;8.73;2.30;;;9.80;95.00;;;9.88;56.49;97683.84;4828642;29;112939;-83
2023/12/22 06:46:43;;;;;;;5.80;2.00;;;9.90;94.90;;;9.88;56.41;97692.13;4825604;29;124253;-83
2023/12/22 06:49:10;;;;;;;8.77;2.10;;;9.70;94.80;;;9.91;56.35;97701.69;4839828;29;123906;-81
2023/12/22 06:51:44;;;;;;;4.47;1.50;;;9.60;94.60;;;9.94;56.04;97706.56;4839084;29;114446;-81
2023/12/22 06:54:13;;;;;;;8.00;2.03;;;9.70;94.60;;;9.92;56.19;97704.13;4836952;29;114729;-82
2023/12/22 06:56:45;;;;;;;6.10;1.70;;;9.60;94.50;;;9.95;56.38;97705.41;4835121;29;124279;-80
2023/12/22 06:59:11;;;;;;;4.60;1.60;;;9.70;94.60;;;9.97;55.93;97708.66;4836008;29;123464;-82
2023/12/22 07:01:43;;;;;;;5.30;1.80;;;11.20;94.60;;;9.97;55.80;97708.66;4838824;29;113358;-83
2023/12/22 07:04:11;;;;;;;8.67;2.40;;;9.70;94.50;;;9.95;56.06;97721.97;4840473;29;113094;-81
2023/12/22 07:06:42;;;;;;;15.37;3.17;;;9.70;94.50;;;9.93;56.38;97711.25;4834679;29;124005;-83
2023/12/22 07:09:15;;;;;;;7.43;1.63;;;9.70;94.70;;;9.94;56.03;97732.19;4849167;29;123088;-80
2023/12/22 07:11:52;;;;;;;5.53;1.87;;;10.50;94.60;;;9.94;56.30;97725.88;4841145;29;113638;-82
2023/12/22 07:14:19;;;;;;;4.70;1.90;;;9.70;94.90;;;9.92;56.68;97728.16;4837703;29;114508;-80
2023/12/22 07:16:51;;;;;;;4.97;1.63;;;9.70;94.90;;;9.94;57.16;97743.22;4851083;29;122490;-80
2023/12/22 07:19:23;;;;;;;5.00;1.90;;;9.70;95.00;;;9.94;57.08;97751.50;4836191;29;122963;-80
2023/12/22 07:21:50;;;;;;;9.43;2.20;;;10.00;94.60;;;9.92;57.39;97752.97;4837728;29;113464;-82
2023/12/22 07:24:19;;;;;;;7.07;2.17;;;9.70;95.10;;;9.91;57.36;97732.03;4849916;29;113449;-81
2023/12/22 07:26:50;;;;;;;7.13;2.43;;;9.70;95.20;;;9.91;57.74;97741.16;4837372;29;123269;-80
2023/12/22 07:29:22;;;;;;;7.40;2.17;;;9.70;95.30;;;9.90;57.78;97741.47;4836913;29;123080;-81
2023/12/22 07:31:54;;;;;;;10.30;1.90;;;9.70;95.50;;;9.91;58.21;97756.88;4834740;29;112397;-82
2023/12/22 07:34:23;;;;;;;5.70;1.50;;;9.70;95.60;;;9.90;58.45;97745.03;4838335;29;113092;-84
2023/12/22 07:36:53;;;;;;;12.73;2.63;;;9.70;95.60;;;9.88;58.53;97754.78;4842545;29;123220;-82
2023/12/22 07:39:24;;;;;;;8.30;1.70;;;10.30;95.60;;;9.88;58.44;97765.81;4853288;29;123876;-81
2023/12/22 07:42:00;;;;;;;9.33;2.00;;;9.70;95.80;;;9.86;58.18;97779.97;4841822;29;114530;-82
2023/12/22 07:44:27;;;;;;;7.20;1.47;;;9.60;95.70;;;9.83;58.65;97753.03;4836056;29;113979;-82
2023/12/22 07:46:59;;;;;;;3.67;1.43;;;9.60;95.70;;;9.84;58.76;97756.59;4838970;29;122079;-82
2023/12/22 07:49:26;;;;;;;8.27;1.60;;;9.60;95.80;;;9.83;58.72;97753.03;4836871;29;123616;-82
2023/12/22 07:51:54;;;;;;;7.80;1.70;;;9.60;95.80;;;9.84;58.48;97748.31;4841882;29;114889;-81
2023/12/22 07:54:28;;;;;;;6.70;1.93;;;9.60;95.90;;;9.87;58.69;97753.16;4838701;29;111783;-83
2023/12/22 07:56:55;;;;;;;4.97;1.77;;;9.60;95.90;;;9.87;58.68;97744.91;4835828;29;125152;-81
2023/12/22 07:59:24;;;;;;;9.37;1.70;;;11.50;96.30;;;9.88;59.14;97749.25;4833851;29;123969;-82
2023/12/22 08:01:53;;;;;;;11.40;2.70;;;9.60;96.00;;;9.87;59.43;97759.50;4840303;29;114298;-83
2023/12/22 08:04:22;;;;;;;4.60;1.73;;;10.30;96.00;;;9.86;60.03;97757.06;4812619;29;112897;-84
2023/12/22 08:06:49;;;;;;;4.73;1.73;;;9.60;96.50;;;9.81;60.09;97760.03;4852491;29;123547;-85
2023/12/22 08:09:18;;;;;;;5.53;1.43;;;9.60;96.70;;;9.78;60.59;97744.13;4836303;29;122943;-82
2023/12/22 08:11:46;;;;;;;4.73;1.50;;;9.60;96.90;;;9.76;61.15;97746.44;4848843;29;114368;-83
2023/12/22 08:14:13;;;;;;;5.30;1.87;;;10.70;97.10;;;9.71;61.80;97753.72;4850384;29;113229;-82
2023/12/22 08:16:43;;;;;;;6.43;1.70;;;9.60;97.40;;;9.68;62.73;97768.19;4846637;29;124065;-82
2023/12/22 08:19:10;;;;;;;8.37;2.90;;;9.70;97.70;;;9.64;62.52;97767.22;4833942;29;122820;-84
2023/12/22 08:21:37;;;;;;;8.77;2.23;;;9.50;97.80;;;9.64;62.89;97760.91;4820488;29;113802;-80
2023/12/22 08:24:12;;;;;;;3.27;1.80;;;9.50;98.00;;;9.59;63.45;97763.84;4836388;29;113345;-81
2023/12/22 08:26:41;;;;;;;5.83;1.97;;;9.40;98.30;;;9.54;63.70;97756.59;4827243;29;124064;-82
2023/12/22 08:29:08;;;;;;;5.73;2.27;;;9.40;98.40;;;9.51;64.32;97757.25;4851977;29;122446;-80
2023/12/22 08:31:36;;;;;;;8.47;2.63;;;9.40;98.60;;;9.48;64.10;97753.22;4851162;29;115586;-80
2023/12/22 08:34:07;;;;;;;7.90;2.07;;;9.30;98.70;;;9.44;64.86;97762.47;4850464;29;113981;-81
2023/12/22 08:36:39;;;;;;;6.80;2.03;;;9.30;98.90;;;9.43;64.45;97747.03;4834232;29;123747;-78
2023/12/22 08:39:05;;;;;;;9.43;2.13;;;9.20;98.90;;;9.39;64.95;97815.03;4850819;29;122809;-77
2023/12/22 08:41:36;;;;;;;6.63;2.30;;;9.20;99.00;;;9.38;64.63;97770.13;4825104;29;113346;-82
2023/12/22 08:44:07;;;;;;;12.73;3.70;;;9.20;99.00;;;9.36;64.80;97771.56;4832362;29;113869;-78
2023/12/22 08:46:34;;;;;;;15.40;4.37;;;9.10;99.00;;;9.32;64.79;97765.09;4823691;29;124270;-80
2023/12/22 08:49:01;;;;;;;7.30;2.20;;;9.10;99.10;;;9.31;64.85;97769.00;4832545;29;124223;-83
2023/12/22 08:51:37;;;;;;;11.00;2.50;;;9.10;99.10;;;9.38;64.33;97733.47;4818997;29;113341;-85
2023/12/22 08:54:04;;;;;;;8.33;2.83;;;9.10;99.00;;;9.36;64.54;97750.31;4840626;29;113133;-79
2023/12/22 08:56:30;;;;;;;6.83;2.10;;;9.10;98.90;;;9.37;63.90;97751.13;4848403;28;122124;-84
2023/12/22 08:59:01;;;;;;;6.90;1.93;;;9.10;98.80;;;9.39;63.90;97749.66;4850013;29;123829;-82
2023/12/22 09:01:27;;;;;;;8.00;2.30;;;9.20;98.80;;;9.42;63.70;97746.25;4846177;29;116124;-79
2023/12/22 09:04:10;;;;;;;12.67;3.27;;;9.20;98.80;;;9.43;63.44;97761.66;4826046;29;114029;-85
2023/12/22 09:06:43;;;;;;;6.47;2.17;;;9.20;98.60;;;9.45;63.52;97792.44;4855404;29;122818;-85
2023/12/22 09:09:10;;;;;;;7.30;2.20;;;10.70;98.70;;;9.47;63.22;97787.41;4829708;29;122879;-82
2023/12/22 09:11:37;;;;;;;13.60;2.73;;;9.20;98.40;;;9.50;62.79;97783.19;4850492;29;113574;-84
2023/12/22 09:14:09;;;;;;;8.93;2.27;;;9.20;98.30;;;9.51;62.66;97754.50;4846515;29;113933;-82
2023/12/22 09:16:37;;;;;;;10.03;2.70;;;9.50;98.20;;;9.55;61.87;97785.78;4840462;29;124032;-82
2023/12/22 09:19:07;;;;;;;11.13;2.87;;;9.30;97.90;;;9.56;62.07;97778.31;4840065;29;124064;-81
2023/12/22 09:21:34;;;;;;;11.30;2.97;;;9.30;97.90;;;9.59;61.59;97774.88;4842322;29;114599;-84
2023/12/22 09:24:00;;;;;;;10.60;3.43;;;9.30;97.60;;;9.60;61.09;97771.00;4842208;29;115609;-81
2023/12/22 09:26:27;;;;;;;10.07;2.53;;;9.30;97.40;;;9.62;61.53;97769.53;4842185;29;122061;-83
2023/12/22 09:28:56;;;;;;;7.93;2.33;;;10.20;97.30;;;9.68;60.30;97806.81;4839082;29;123826;-83
2023/12/22 09:31:22;;;;;;;13.40;2.60;;;9.40;97.10;;;9.70;60.38;97803.72;4833294;29;112640;-84
2023/12/22 09:33:51;;;;;;;13.40;2.90;;;9.40;96.90;;;9.72;60.13;97793.16;4845769;29;114031;-81
2023/12/22 09:36:18;;;;;;;10.10;2.50;;;9.50;96.80;;;9.78;59.73;97782.75;4835090;29;123267;-84
2023/12/22 09:38:47;;;;;;;10.40;2.90;;;9.50;96.80;;;9.81;59.22;97793.94;4845502;29;123933;-85
2023/12/22 09:41:18;;;;;;;13.00;2.80;;;9.50;96.40;;;9.83;59.29;97793.59;4839663;29;112184;-83
2023/12/22 09:43:52;;;;;;;10.73;2.77;;;9.60;96.30;;;9.88;58.35;97832.03;4833716;29;114335;-83
2023/12/22 09:46:21;;;;;;;24.53;3.60;;;9.60;96.10;;;9.90;57.75;97808.47;4821664;29;122478;-83
2023/12/22 09:48:51;;;;;;;11.53;3.10;;;9.60;95.70;;;9.91;58.25;97814.81;4833104;29;123590;-83
2023/12/22 09:51:21;;;;;;;10.60;2.97;;;10.90;95.90;;;9.94;58.04;97826.00;4837944;29;113520;-81
2023/12/22 09:54:00;;;;;;;18.33;3.83;;;9.90;95.90;;;10.01;57.94;97819.16;4834795;29;113430;-84
2023/12/22 09:56:44;;;;;;;8.73;2.50;;;9.90;95.70;;;10.01;57.57;97811.66;4853598;29;123155;-84
2023/12/22 09:59:17;;;;;;;14.13;2.90;;;9.70;95.50;;;10.02;57.23;97827.09;4836768;29;124209;-82
2023/12/22 10:01:48;;;;;;;14.03;2.83;;;9.70;95.50;;;10.02;57.26;97810.56;4830954;29;113474;-82
2023/12/22 10:04:16;;;;;;;12.13;2.63;;;9.70;95.50;;;10.03;57.69;97817.69;4837638;29;114157;-84
2023/12/22 10:06:45;;;;;;;13.43;3.80;;;9.80;95.50;;;10.02;57.33;97810.56;4850880;29;124517;-83
2023/12/22 10:09:14;;;;;;;14.90;3.30;;;11.40;95.60;;;10.05;57.22;97806.31;4838384;29;122238;-83
2023/12/22 10:11:44;;;;;;;14.10;3.10;;;9.80;95.40;;;10.05;57.61;97787.81;4832247;29;114325;-82
2023/12/22 10:14:12;;;;;;;12.60;3.20;;;9.80;95.50;;;10.06;57.55;97788.59;4819548;29;111932;-82
2023/12/22 10:16:40;;;;;;;14.67;2.90;;;9.80;95.40;;;10.07;57.01;97790.22;4842041;29;122447;-82
2023/12/22 10:19:09;;;;;;;13.50;2.73;;;10.30;94.90;;;10.08;57.10;97759.53;4840844;29;123552;-83
2023/12/22 10:21:36;;;;;;;10.00;2.90;;;9.80;95.20;;;10.11;56.78;97753.34;4854139;29;113333;-84
2023/12/22 10:24:02;;;;;;;8.07;2.80;;;9.90;95.10;;;10.13;57.12;97772.34;4851698;29;113241;-82
2023/12/22 10:26:29;;;;;;;12.13;3.20;;;9.90;95.10;;;10.15;56.80;97759.81;4817753;29;121897;-83
2023/12/22 10:28:57;;;;;;;8.27;2.60;;;9.90;95.00;;;10.18;56.33;97744.50;4826053;29;122980;-84
2023/12/22 10:31:26;;;;;;;8.07;2.50;;;9.90;94.90;;;10.23;56.55;97743.50;4854223;29;113506;-83
2023/12/22 10:33:59;;;;;;;10.80;3.07;;;10.40;94.70;;;10.25;56.34;97746.75;4836741;29;113228;-83
2023/12/22 10:36:25;;;;;;;11.50;2.80;;;10.00;94.50;;;10.26;56.29;97782.31;4844895;29;124027;-84